Time;durP1;ratioP1;P1;durP2;ratioP2;P2;SDS_P1;SDS_P2;PMS_P1;PMS_P2;Temp;Humidity;BMP_temperature;BMP_pressure;BME280_temperature;BME280_humidity;BME280_pressure;Samples;Min_cycle;Max_cycle;Signal;HPM_P1;HPM_P2
2021/01/09 00:01:37;;;;;;;13.38;8.02;;;5.90;92.30;;;;;;5051118;28;20025;-73
2021/01/09 00:04:05;;;;;;;11.43;7.55;;;5.80;92.30;;;;;;5056342;28;20108;-73
2021/01/09 00:06:38;;;;;;;12.20;7.22;;;5.80;92.30;;;;;;5051241;28;20056;-73
2021/01/09 00:09:05;;;;;;;12.20;7.68;;;5.80;92.40;;;;;;5054102;28;20042;-73
2021/01/09 00:11:31;;;;;;;12.60;7.28;;;5.80;92.50;;;;;;5049559;28;20082;-73
2021/01/09 00:13:57;;;;;;;12.35;7.43;;;5.80;92.50;;;;;;5056811;28;20100;-74
2021/01/09 00:16:22;;;;;;;12.07;7.47;;;5.80;92.50;;;;;;5055096;28;20580;-74
2021/01/09 00:18:48;;;;;;;11.73;7.22;;;5.90;92.50;;;;;;5054853;28;20394;-73
2021/01/09 00:21:13;;;;;;;11.43;7.65;;;5.90;92.60;;;;;;5054525;28;20048;-73
2021/01/09 00:23:39;;;;;;;12.65;8.38;;;5.90;92.50;;;;;;5064357;28;20059;-74
2021/01/09 00:26:04;;;;;;;12.18;7.57;;;5.90;92.50;;;;;;5055263;28;20032;-74
2021/01/09 00:28:30;;;;;;;12.48;7.15;;;5.90;92.50;;;;;;5055431;28;20070;-73
2021/01/09 00:30:55;;;;;;;11.35;6.70;;;5.90;92.40;;;;;;5053262;28;20027;-73
2021/01/09 00:33:21;;;;;;;11.57;7.18;;;5.90;92.40;;;;;;5055102;28;20189;-74
2021/01/09 00:35:46;;;;;;;12.43;6.70;;;5.90;92.30;;;;;;5055370;28;20036;-73
2021/01/09 00:38:12;;;;;;;12.10;7.53;;;5.90;92.30;;;;;;5055243;28;20031;-74
2021/01/09 00:40:37;;;;;;;10.90;7.32;;;5.90;92.50;;;;;;5054073;28;20016;-73
2021/01/09 00:43:03;;;;;;;11.75;7.55;;;5.90;92.30;;;;;;5056285;28;20111;-73
2021/01/09 00:45:30;;;;;;;11.77;7.53;;;5.90;92.30;;;;;;5072796;28;20039;-74
2021/01/09 00:47:55;;;;;;;10.07;6.57;;;5.90;92.30;;;;;;5071109;28;20384;-73
2021/01/09 00:50:21;;;;;;;11.60;7.50;;;5.90;92.40;;;;;;5057072;28;20115;-73
2021/01/09 00:52:46;;;;;;;12.10;7.15;;;5.90;92.40;;;;;;5054895;28;20017;-71
2021/01/09 00:55:13;;;;;;;12.43;7.05;;;5.90;92.30;;;;;;5066326;28;20142;-70
2021/01/09 00:57:39;;;;;;;11.07;7.15;;;6.00;92.40;;;;;;5074636;28;20033;-70
2021/01/09 01:00:06;;;;;;;13.07;7.53;;;5.90;92.30;;;;;;5054450;28;20595;-71
2021/01/09 01:02:32;;;;;;;11.48;7.15;;;5.90;92.40;;;;;;5053006;28;20143;-70
2021/01/09 01:04:58;;;;;;;11.05;7.05;;;5.80;92.40;;;;;;5067901;28;20131;-70
2021/01/09 01:07:23;;;;;;;10.05;6.50;;;5.80;92.60;;;;;;5074371;28;20082;-70
2021/01/09 01:09:49;;;;;;;11.30;7.05;;;5.80;92.60;;;;;;5065781;28;20033;-70
2021/01/09 01:12:14;;;;;;;10.60;6.80;;;5.80;92.50;;;;;;5064002;28;20094;-70
2021/01/09 01:14:40;;;;;;;11.65;7.10;;;5.90;92.60;;;;;;5054667;28;20040;-70
2021/01/09 01:17:05;;;;;;;9.82;6.05;;;5.80;92.50;;;;;;5058740;28;20354;-70
2021/01/09 01:19:31;;;;;;;9.63;6.10;;;5.90;92.50;;;;;;5053961;28;20021;-69
2021/01/09 01:21:56;;;;;;;10.02;6.82;;;5.90;92.40;;;;;;5059434;28;20052;-69
2021/01/09 01:24:22;;;;;;;9.40;6.05;;;5.90;92.70;;;;;;5060066;28;20028;-70
2021/01/09 01:26:47;;;;;;;8.75;5.90;;;5.80;92.40;;;;;;5058160;28;20028;-70
2021/01/09 01:29:13;;;;;;;9.07;5.80;;;5.90;92.40;;;;;;5060943;28;20526;-72
2021/01/09 01:31:39;;;;;;;10.25;5.93;;;5.80;92.30;;;;;;5054225;28;20037;-72
2021/01/09 01:34:04;;;;;;;10.70;6.90;;;5.80;92.20;;;;;;5053772;28;20017;-72
2021/01/09 01:36:30;;;;;;;8.57;5.40;;;5.80;92.30;;;;;;5054448;28;20021;-71
2021/01/09 01:38:55;;;;;;;10.13;5.78;;;5.70;92.30;;;;;;5064438;28;20488;-71
2021/01/09 01:41:21;;;;;;;9.40;5.68;;;5.80;92.30;;;;;;5053707;28;20029;-72
2021/01/09 01:43:46;;;;;;;9.82;5.80;;;5.80;92.20;;;;;;5054886;28;20021;-72
2021/01/09 01:46:13;;;;;;;9.05;5.70;;;5.80;92.20;;;;;;5054547;28;20056;-72
2021/01/09 01:48:38;;;;;;;8.00;5.20;;;5.80;92.20;;;;;;5071644;28;20025;-72
2021/01/09 01:51:05;;;;;;;9.35;6.20;;;5.80;92.20;;;;;;5059651;28;20087;-71
2021/01/09 01:53:32;;;;;;;8.15;5.35;;;5.80;92.20;;;;;;5068039;28;20112;-71
2021/01/09 01:55:57;;;;;;;9.77;5.70;;;5.80;92.20;;;;;;5072733;28;20062;-71
2021/01/09 01:58:23;;;;;;;8.35;5.47;;;5.80;92.20;;;;;;5067143;28;20389;-72
2021/01/09 02:00:49;;;;;;;9.02;6.03;;;5.80;92.20;;;;;;5064517;28;20037;-71
2021/01/09 02:03:19;;;;;;;9.82;6.05;;;5.80;92.20;;;;;;5068856;28;20021;-71
2021/01/09 02:06:06;;;;;;;10.27;5.93;;;5.80;92.20;;;;;;5053642;28;20555;-71
2021/01/09 02:08:39;;;;;;;11.95;6.55;;;5.80;92.30;;;;;;5053874;28;20032;-73
2021/01/09 02:11:13;;;;;;;10.35;6.25;;;5.80;92.30;;;;;;5052927;28;20071;-72
2021/01/09 02:13:43;;;;;;;10.10;6.22;;;5.70;92.40;;;;;;5059978;28;20099;-72
2021/01/09 02:16:11;;;;;;;9.63;6.45;;;5.70;92.40;;;;;;5068746;28;20081;-73
2021/01/09 02:18:40;;;;;;;9.30;6.20;;;5.70;92.50;;;;;;5053053;28;20354;-73
2021/01/09 02:21:12;;;;;;;10.00;6.28;;;5.70;92.50;;;;;;5063518;28;20078;-72
2021/01/09 02:23:37;;;;;;;9.93;6.32;;;5.80;92.50;;;;;;5052673;28;20029;-73
2021/01/09 02:26:04;;;;;;;10.43;6.30;;;5.70;92.50;;;;;;5052940;28;20071;-72
2021/01/09 02:28:29;;;;;;;10.70;6.18;;;5.70;92.60;;;;;;5055206;28;20496;-72
2021/01/09 02:30:59;;;;;;;8.13;5.63;;;5.70;92.60;;;;;;5072179;28;20028;-73
2021/01/09 02:33:25;;;;;;;9.35;5.95;;;5.70;92.60;;;;;;5066487;28;20025;-72
2021/01/09 02:35:52;;;;;;;9.05;5.88;;;5.70;92.70;;;;;;5060655;28;20082;-72
2021/01/09 02:38:17;;;;;;;9.07;6.13;;;5.70;92.70;;;;;;5067651;28;20049;-73
2021/01/09 02:40:44;;;;;;;10.02;6.03;;;5.60;92.70;;;;;;5061866;28;20120;-72
2021/01/09 02:43:11;;;;;;;9.80;5.90;;;5.70;92.80;;;;;;5051887;28;20097;-73
2021/01/09 02:45:36;;;;;;;9.80;6.30;;;5.60;92.80;;;;;;5052717;28;20048;-73
2021/01/09 02:48:02;;;;;;;9.57;6.40;;;5.60;92.80;;;;;;5052468;28;20024;-74
2021/01/09 02:50:27;;;;;;;10.57;6.28;;;5.60;92.80;;;;;;5062264;28;20546;-73
2021/01/09 02:52:53;;;;;;;10.73;6.10;;;5.60;92.80;;;;;;5072890;28;20684;-74
2021/01/09 02:55:18;;;;;;;9.05;5.88;;;5.60;92.90;;;;;;5060344;28;20041;-73
2021/01/09 02:57:44;;;;;;;10.60;6.25;;;5.60;92.90;;;;;;5052607;28;20021;-71
2021/01/09 03:00:10;;;;;;;10.45;6.25;;;5.50;92.90;;;;;;5051072;28;20386;-73
2021/01/09 03:02:35;;;;;;;10.32;6.43;;;5.50;93.00;;;;;;5052284;28;20085;-72
2021/01/09 03:05:01;;;;;;;10.68;6.68;;;5.50;93.10;;;;;;5052175;28;20040;-73
2021/01/09 03:07:26;;;;;;;9.80;6.18;;;5.50;93.10;;;;;;5052075;28;20025;-73
2021/01/09 03:09:52;;;;;;;12.75;6.72;;;5.50;93.10;;;;;;5052548;28;20083;-74
2021/01/09 03:12:17;;;;;;;11.27;6.93;;;5.50;93.20;;;;;;5071019;28;20099;-74
2021/01/09 03:14:43;;;;;;;11.75;7.35;;;5.50;93.20;;;;;;5072288;28;20020;-73
2021/01/09 03:17:08;;;;;;;14.18;7.05;;;5.40;93.20;;;;;;5053068;28;20065;-74
2021/01/09 03:19:34;;;;;;;12.82;7.55;;;5.40;93.30;;;;;;5065772;28;20040;-74
2021/01/09 03:21:59;;;;;;;12.27;7.38;;;5.40;93.40;;;;;;5051832;28;20033;-73
2021/01/09 03:24:24;;;;;;;12.07;7.32;;;5.30;93.50;;;;;;5052389;28;20103;-74
2021/01/09 03:26:50;;;;;;;11.27;7.28;;;5.30;93.50;;;;;;5064570;28;20029;-72
2021/01/09 03:29:16;;;;;;;11.68;7.10;;;5.30;93.50;;;;;;5052841;28;20028;-72
2021/01/09 03:31:41;;;;;;;10.80;6.78;;;5.30;93.60;;;;;;5065152;28;20606;-72
2021/01/09 03:34:06;;;;;;;9.80;6.22;;;5.40;93.60;;;;;;5053637;28;20024;-73
2021/01/09 03:36:32;;;;;;;9.35;6.03;;;5.40;93.60;;;;;;5050422;28;20428;-73
2021/01/09 03:38:57;;;;;;;8.25;5.30;;;5.40;93.50;;;;;;5068433;28;20035;-73
2021/01/09 03:41:23;;;;;;;9.18;5.32;;;5.40;93.50;;;;;;5058754;28;20067;-73
2021/01/09 03:43:48;;;;;;;8.73;5.70;;;5.40;93.40;;;;;;5051701;28;20025;-73
2021/01/09 03:46:14;;;;;;;8.27;4.95;;;5.50;93.40;;;;;;5050611;28;20037;-73
2021/01/09 03:48:39;;;;;;;7.55;5.25;;;5.50;93.30;;;;;;5055967;28;20052;-73
2021/01/09 03:51:05;;;;;;;8.07;5.32;;;5.50;93.20;;;;;;5051322;28;20028;-73
2021/01/09 03:53:30;;;;;;;8.48;5.40;;;5.50;93.20;;;;;;5055857;28;20032;-74
2021/01/09 03:55:56;;;;;;;9.05;5.40;;;5.50;93.20;;;;;;5069690;28;20501;-74
2021/01/09 03:58:21;;;;;;;9.13;5.40;;;5.50;93.20;;;;;;5065423;28;20013;-73
2021/01/09 04:00:47;;;;;;;8.07;5.63;;;5.50;93.20;;;;;;5050993;28;20539;-74
2021/01/09 04:03:12;;;;;;;8.57;5.72;;;5.50;93.20;;;;;;5051213;28;20021;-73
2021/01/09 04:05:38;;;;;;;8.48;5.72;;;5.50;93.20;;;;;;5050805;28;20040;-73
2021/01/09 04:08:04;;;;;;;8.45;5.43;;;5.50;93.20;;;;;;5051662;28;20389;-74
2021/01/09 04:10:30;;;;;;;8.98;5.68;;;5.50;93.20;;;;;;5050929;28;20053;-73
2021/01/09 04:12:56;;;;;;;7.82;5.28;;;5.50;93.30;;;;;;5051575;28;20037;-73
2021/01/09 04:15:21;;;;;;;7.30;5.15;;;5.50;93.20;;;;;;5051083;28;20035;-73
2021/01/09 04:17:47;;;;;;;9.32;5.15;;;5.50;93.10;;;;;;5051164;28;20021;-73
2021/01/09 04:20:12;;;;;;;7.07;5.00;;;5.50;93.00;;;;;;5050682;28;20717;-74
2021/01/09 04:22:38;;;;;;;8.82;6.03;;;5.60;93.00;;;;;;5051666;28;20057;-74
2021/01/09 04:25:04;;;;;;;8.43;5.43;;;5.60;93.00;;;;;;5051873;28;20471;-72
2021/01/09 04:27:30;;;;;;;8.13;5.43;;;5.60;93.00;;;;;;5051191;28;20033;-72
2021/01/09 04:29:55;;;;;;;8.63;5.68;;;5.60;93.00;;;;;;5050809;28;20031;-72
2021/01/09 04:32:21;;;;;;;8.73;5.70;;;5.60;93.00;;;;;;5067380;28;20112;-73
2021/01/09 04:34:47;;;;;;;9.65;5.65;;;5.60;93.00;;;;;;5071016;28;20024;-73
2021/01/09 04:37:13;;;;;;;8.35;5.75;;;5.60;92.90;;;;;;5050556;28;20029;-72
2021/01/09 04:39:39;;;;;;;8.25;5.28;;;5.60;92.90;;;;;;5051039;28;20029;-73
2021/01/09 04:42:05;;;;;;;8.88;5.80;;;5.60;92.90;;;;;;5065262;28;20028;-73
2021/01/09 04:44:30;;;;;;;9.05;6.03;;;5.60;92.90;;;;;;5071058;28;20083;-73
2021/01/09 04:46:57;;;;;;;7.57;5.68;;;5.60;93.00;;;;;;5050137;28;20033;-72
2021/01/09 04:49:24;;;;;;;8.48;6.03;;;5.60;92.90;;;;;;5051398;28;20032;-73
2021/01/09 04:51:51;;;;;;;8.40;5.90;;;5.60;92.90;;;;;;5050751;28;20083;-73
2021/01/09 04:54:19;;;;;;;9.23;5.90;;;5.60;93.00;;;;;;5050809;28;20397;-73
2021/01/09 04:56:46;;;;;;;9.07;5.70;;;5.60;93.00;;;;;;5051088;28;20044;-73
2021/01/09 04:59:13;;;;;;;10.30;6.53;;;5.60;93.00;;;;;;5050588;28;20095;-73
2021/01/09 05:01:43;;;;;;;12.75;6.97;;;5.70;93.00;;;;;;5054878;28;20041;-73
2021/01/09 05:04:09;;;;;;;8.70;6.07;;;5.60;92.90;;;;;;5056632;28;20338;-73
2021/01/09 05:06:36;;;;;;;9.43;6.15;;;5.70;93.00;;;;;;5057168;28;20489;-73
2021/01/09 05:09:02;;;;;;;9.35;5.63;;;5.70;93.00;;;;;;5061011;28;20025;-73
2021/01/09 05:11:31;;;;;;;9.93;6.10;;;5.70;92.90;;;;;;5060541;28;20032;-73
2021/01/09 05:13:58;;;;;;;9.02;5.90;;;5.60;92.90;;;;;;5054542;28;20021;-74
2021/01/09 05:16:24;;;;;;;10.13;6.28;;;5.70;92.90;;;;;;5054043;28;20088;-74
2021/01/09 05:18:50;;;;;;;9.85;6.13;;;5.70;92.90;;;;;;5054482;28;20036;-73
2021/01/09 05:21:16;;;;;;;9.70;6.15;;;5.70;92.90;;;;;;5054066;28;20409;-73
2021/01/09 05:23:50;;;;;;;10.45;5.95;;;5.70;93.20;;;;;;5054342;28;20163;-74
2021/01/09 05:26:17;;;;;;;;;;;5.70;92.90;;;;;;5053516;28;20124;-74
2021/01/09 05:28:50;;;;;;;9.40;5.78;;;5.70;92.90;;;;;;5054252;28;19905;-74
2021/01/09 05:31:18;;;;;;;9.50;5.80;;;5.70;92.90;;;;;;5054532;28;20033;-74
2021/01/09 05:33:44;;;;;;;9.57;5.53;;;5.70;92.90;;;;;;5054237;28;20037;-74
2021/01/09 05:36:11;;;;;;;8.10;5.55;;;5.70;92.90;;;;;;5055326;28;20612;-74
2021/01/09 05:38:38;;;;;;;8.82;5.45;;;5.70;92.80;;;;;;5052578;28;20100;-74
2021/01/09 05:41:15;;;;;;;9.77;5.95;;;5.60;93.00;;;;;;5053459;28;20554;-74
2021/01/09 05:43:41;;;;;;;9.80;6.07;;;5.60;92.70;;;;;;5054011;28;20393;-74
2021/01/09 05:46:08;;;;;;;9.02;5.70;;;5.60;92.70;;;;;;5052879;28;20039;-74
2021/01/09 05:48:35;;;;;;;8.30;5.30;;;5.60;92.80;;;;;;5053902;28;20036;-74
2021/01/09 05:51:05;;;;;;;8.65;5.75;;;5.60;92.80;;;;;;5054798;28;20112;-74
2021/01/09 05:53:44;;;;;;;8.98;5.45;;;5.60;92.80;;;;;;5052537;28;20033;-74
2021/01/09 05:56:12;;;;;;;9.27;5.93;;;5.60;92.90;;;;;;5063092;28;20040;-74
2021/01/09 05:58:38;;;;;;;9.80;5.82;;;5.60;92.90;;;;;;5076548;28;20035;-76
2021/01/09 06:01:14;;;;;;;9.52;5.80;;;5.60;92.80;;;;;;5064428;28;20048;-74
2021/01/09 06:03:47;;;;;;;7.10;4.95;;;5.60;92.80;;;;;;5053822;28;20068;-74
2021/01/09 06:06:32;;;;;;;6.85;4.63;;;5.60;92.70;;;;;;5053847;28;20037;-74
2021/01/09 06:08:59;;;;;;;8.18;4.90;;;5.50;92.50;;;;;;5053556;28;20048;-74
2021/01/09 06:11:33;;;;;;;7.43;5.20;;;5.50;92.40;;;;;;5054114;28;20130;-74
2021/01/09 06:14:00;;;;;;;7.40;4.65;;;5.60;92.50;;;;;;5053351;28;20040;-74
2021/01/09 06:16:28;;;;;;;8.13;4.90;;;5.50;92.50;;;;;;5063993;28;20162;-74
2021/01/09 06:18:56;;;;;;;6.03;3.65;;;5.50;92.50;;;;;;5068381;28;20075;-74
2021/01/09 06:21:22;;;;;;;5.60;3.42;;;5.40;92.30;;;;;;5053331;28;20036;-74
2021/01/09 06:23:48;;;;;;;4.80;2.92;;;5.30;92.30;;;;;;5053480;28;20029;-74
2021/01/09 06:26:15;;;;;;;4.55;3.05;;;5.40;92.30;;;;;;5052347;28;20025;-74
2021/01/09 06:28:45;;;;;;;6.80;3.88;;;5.40;92.20;;;;;;5053215;28;20025;-74
2021/01/09 06:31:20;;;;;;;7.60;4.47;;;5.40;92.20;;;;;;5071611;28;20035;-74
2021/01/09 06:33:48;;;;;;;7.65;4.43;;;5.40;92.30;;;;;;5077836;28;20032;-73
2021/01/09 06:36:14;;;;;;;7.65;4.82;;;5.40;92.30;;;;;;5069483;28;20425;-74
2021/01/09 06:38:44;;;;;;;8.63;4.75;;;5.40;92.30;;;;;;5052721;28;20033;-74
2021/01/09 06:41:13;;;;;;;8.93;5.43;;;5.40;92.30;;;;;;5069931;28;20035;-74
2021/01/09 06:43:51;;;;;;;10.23;6.15;;;5.40;92.40;;;;;;5058316;28;22274;-75
2021/01/09 06:46:34;;;;;;;8.23;4.93;;;5.40;92.40;;;;;;5052757;28;20051;-74
2021/01/09 06:49:00;;;;;;;7.88;5.15;;;5.30;92.50;;;;;;5058889;28;20523;-74
2021/01/09 06:51:35;;;;;;;8.27;5.07;;;5.30;92.40;;;;;;5059576;28;20037;-74
2021/01/09 06:54:15;;;;;;;7.93;5.50;;;5.30;92.50;;;;;;5052817;28;20512;-74
2021/01/09 06:57:08;;;;;;;7.57;4.57;;;5.30;92.50;;;;;;5051591;28;20064;-74
2021/01/09 06:59:42;;;;;;;8.43;5.30;;;5.30;92.50;;;;;;5067132;28;20441;-74
2021/01/09 07:02:26;;;;;;;8.05;5.38;;;5.40;92.40;;;;;;5052911;28;20036;-75
2021/01/09 07:04:53;;;;;;;9.70;6.30;;;5.40;92.50;;;;;;5052164;28;20443;-74
2021/01/09 07:07:29;;;;;;;8.80;5.75;;;5.40;92.40;;;;;;5051433;28;20106;-74
2021/01/09 07:10:17;;;;;;;9.85;6.05;;;5.40;92.50;;;;;;5052406;28;20350;-74
2021/01/09 07:12:55;;;;;;;9.23;5.80;;;5.30;92.40;;;;;;5062712;28;20114;-74
2021/01/09 07:15:22;;;;;;;9.73;6.22;;;5.40;92.50;;;;;;5066692;28;20374;-74
2021/01/09 07:17:57;;;;;;;9.35;5.57;;;5.40;92.50;;;;;;5066932;28;20032;-74
2021/01/09 07:20:27;;;;;;;11.45;6.93;;;5.40;92.50;;;;;;5064244;28;20412;-75
2021/01/09 07:22:59;;;;;;;12.68;7.05;;;5.40;92.50;;;;;;5051162;28;20043;-74
2021/01/09 07:25:34;;;;;;;10.50;6.53;;;5.40;92.50;;;;;;5051838;28;20656;-75
2021/01/09 07:28:02;;;;;;;9.95;6.15;;;5.30;92.60;;;;;;5052082;28;20052;-74
2021/01/09 07:30:29;;;;;;;10.65;6.15;;;5.30;92.60;;;;;;5052506;28;20432;-69
2021/01/09 07:32:56;;;;;;;9.60;5.70;;;5.30;92.60;;;;;;5061249;28;20426;-69
2021/01/09 07:35:24;;;;;;;9.02;5.68;;;5.30;92.40;;;;;;5064333;28;20071;-71
2021/01/09 07:37:52;;;;;;;9.93;5.78;;;5.30;92.40;;;;;;5052917;28;20029;-69
2021/01/09 07:40:19;;;;;;;10.20;6.03;;;5.40;92.40;;;;;;5052427;28;20484;-69
2021/01/09 07:42:47;;;;;;;8.55;4.93;;;5.40;92.30;;;;;;5059120;28;20425;-69
2021/01/09 07:45:17;;;;;;;8.00;4.93;;;5.40;92.20;;;;;;5066932;28;20395;-69
2021/01/09 07:47:48;;;;;;;7.10;4.50;;;5.40;92.20;;;;;;5051732;28;20055;-69
2021/01/09 07:50:17;;;;;;;7.72;4.90;;;5.40;92.00;;;;;;5064159;28;20052;-70
2021/01/09 07:52:43;;;;;;;7.95;4.60;;;5.40;92.00;;;;;;5060960;28;20044;-69
2021/01/09 07:55:13;;;;;;;7.82;4.55;;;5.40;92.00;;;;;;5064952;28;20093;-69
2021/01/09 07:57:39;;;;;;;6.20;3.80;;;5.50;91.90;;;;;;5051454;28;20040;-69
2021/01/09 08:00:11;;;;;;;6.50;4.00;;;5.50;91.80;;;;;;5064991;28;20052;-69
2021/01/09 08:02:42;;;;;;;7.18;3.80;;;5.50;91.80;;;;;;5067477;28;20025;-69
2021/01/09 08:05:14;;;;;;;7.78;5.03;;;5.50;91.80;;;;;;5064765;28;20127;-69
2021/01/09 08:07:48;;;;;;;6.93;4.30;;;5.50;91.80;;;;;;5066417;28;20039;-69
2021/01/09 08:10:18;;;;;;;8.18;5.22;;;5.50;91.70;;;;;;5054222;28;20054;-69
2021/01/09 08:12:45;;;;;;;7.90;4.47;;;5.50;91.70;;;;;;5050949;28;20095;-70
2021/01/09 08:15:10;;;;;;;8.45;5.28;;;5.50;91.70;;;;;;5050427;28;20029;-69
2021/01/09 08:17:36;;;;;;;7.80;4.88;;;5.50;91.70;;;;;;5051347;28;20025;-69
2021/01/09 08:20:12;;;;;;;8.75;5.50;;;5.50;91.80;;;;;;5051364;28;20082;-69
2021/01/09 08:22:47;;;;;;;9.20;5.22;;;5.50;91.90;;;;;;5051499;28;20037;-69
2021/01/09 08:25:13;;;;;;;9.13;6.03;;;5.40;91.90;;;;;;5052720;28;20052;-69
2021/01/09 08:27:43;;;;;;;7.30;4.88;;;5.50;92.00;;;;;;5071095;28;20032;-69
2021/01/09 08:30:11;;;;;;;8.02;5.28;;;5.50;91.90;;;;;;5059368;28;20055;-69
2021/01/09 08:32:36;;;;;;;8.02;5.20;;;5.50;91.80;;;;;;5051053;28;20036;-70
2021/01/09 08:35:02;;;;;;;7.28;4.47;;;5.60;91.80;;;;;;5054710;28;20037;-69
2021/01/09 08:37:29;;;;;;;8.00;5.25;;;5.60;92.10;;;;;;5055909;28;20052;-70
2021/01/09 08:39:55;;;;;;;6.53;4.68;;;5.60;91.80;;;;;;5055435;28;20032;-69
2021/01/09 08:42:21;;;;;;;9.32;5.10;;;5.70;91.80;;;;;;5055965;28;20049;-69
2021/01/09 08:44:50;;;;;;;8.00;5.03;;;5.70;91.70;;;;;;5054190;28;20056;-69
2021/01/09 08:47:16;;;;;;;8.00;4.80;;;5.70;91.60;;;;;;5054370;28;20048;-69
2021/01/09 08:49:45;;;;;;;7.22;4.70;;;5.70;91.60;;;;;;5074857;28;20024;-69
2021/01/09 08:52:11;;;;;;;7.78;5.05;;;5.70;91.60;;;;;;5054003;28;20505;-69
2021/01/09 08:54:39;;;;;;;6.63;4.30;;;5.80;91.60;;;;;;5054674;28;20049;-69
2021/01/09 08:57:06;;;;;;;7.72;4.70;;;5.80;91.50;;;;;;5053298;28;20044;-69
2021/01/09 08:59:33;;;;;;;8.85;5.32;;;5.80;91.30;;;;;;5054127;28;20090;-69
2021/01/09 09:02:01;;;;;;;8.45;4.95;;;5.70;91.20;;;;;;5067901;28;20106;-69
2021/01/09 09:04:27;;;;;;;8.63;5.20;;;5.70;91.40;;;;;;5054846;28;20472;-69
2021/01/09 09:07:04;;;;;;;9.35;5.30;;;5.70;91.50;;;;;;5066813;28;20515;-69
2021/01/09 09:09:32;;;;;;;9.30;5.60;;;5.80;91.50;;;;;;5054715;28;20060;-70
2021/01/09 09:12:01;;;;;;;9.20;5.28;;;5.80;91.50;;;;;;5053522;28;20037;-68
2021/01/09 09:14:26;;;;;;;9.32;5.57;;;5.80;91.60;;;;;;5064479;28;20024;-69
2021/01/09 09:17:06;;;;;;;10.02;5.15;;;5.80;91.60;;;;;;5056805;28;20040;-69
2021/01/09 09:19:37;;;;;;;10.23;5.97;;;5.80;91.70;;;;;;5073354;28;20040;-67
2021/01/09 09:22:03;;;;;;;10.40;6.05;;;5.90;91.80;;;;;;5064073;28;20093;-67
2021/01/09 09:24:43;;;;;;;11.10;6.45;;;5.90;91.90;;;;;;5058469;28;20033;-68
2021/01/09 09:27:18;;;;;;;12.00;6.97;;;5.90;91.90;;;;;;5055397;28;20147;-67
2021/01/09 09:29:44;;;;;;;10.90;6.00;;;5.90;91.90;;;;;;5053837;28;20033;-67
2021/01/09 09:32:20;;;;;;;11.93;6.50;;;5.90;92.00;;;;;;5071310;28;20035;-67
2021/01/09 09:34:46;;;;;;;11.50;6.63;;;5.90;92.00;;;;;;5055670;28;20086;-67
2021/01/09 09:37:11;;;;;;;11.23;6.50;;;5.90;92.00;;;;;;5059393;28;20513;-67
2021/01/09 09:39:37;;;;;;;12.20;6.38;;;5.90;92.10;;;;;;5054974;28;20036;-68
2021/01/09 09:42:03;;;;;;;10.25;6.00;;;6.00;92.10;;;;;;5053056;28;20064;-68
2021/01/09 09:44:40;;;;;;;13.50;7.13;;;6.00;92.10;;;;;;5071125;28;20056;-68
2021/01/09 09:47:27;;;;;;;12.52;6.85;;;6.00;92.30;;;;;;5053884;28;20045;-68
2021/01/09 09:49:58;;;;;;;11.10;6.40;;;5.90;92.20;;;;;;5053122;28;20029;-68
2021/01/09 09:52:24;;;;;;;12.35;7.35;;;6.00;92.30;;;;;;5067040;28;20043;-68
2021/01/09 09:55:00;;;;;;;14.07;7.57;;;5.90;92.30;;;;;;5052769;28;20048;-68
2021/01/09 09:57:26;;;;;;;12.80;7.72;;;5.90;92.40;;;;;;5068854;28;20388;-68
2021/01/09 10:00:04;;;;;;;14.18;7.00;;;6.00;92.50;;;;;;5061249;28;20019;-68
2021/01/09 10:02:29;;;;;;;13.75;7.72;;;6.00;92.60;;;;;;5051733;28;20040;-68
2021/01/09 10:04:55;;;;;;;12.95;7.15;;;6.00;92.50;;;;;;5065431;28;20059;-68
2021/01/09 10:07:22;;;;;;;12.40;7.25;;;6.00;92.50;;;;;;5052509;28;20037;-68
2021/01/09 10:09:47;;;;;;;14.23;7.15;;;5.90;92.60;;;;;;5059024;28;20377;-68
2021/01/09 10:12:13;;;;;;;14.77;6.65;;;5.90;92.60;;;;;;5069089;28;20025;-68
2021/01/09 10:14:39;;;;;;;12.98;6.50;;;6.00;92.70;;;;;;5064836;28;20372;-68
2021/01/09 10:17:04;;;;;;;13.80;6.80;;;6.00;92.70;;;;;;5063331;28;20498;-68
2021/01/09 10:19:30;;;;;;;13.88;8.15;;;6.00;92.70;;;;;;5067091;28;20021;-69
2021/01/09 10:21:55;;;;;;;14.93;7.38;;;6.00;92.80;;;;;;5051842;28;20031;-68
2021/01/09 10:24:20;;;;;;;13.77;7.38;;;6.00;92.80;;;;;;5052960;28;20017;-69
2021/01/09 10:26:46;;;;;;;16.40;8.00;;;6.00;93.10;;;;;;5060042;28;20099;-67
2021/01/09 10:29:11;;;;;;;15.70;8.65;;;6.00;92.80;;;;;;5053455;28;20033;-68
2021/01/09 10:31:39;;;;;;;15.88;7.28;;;6.00;92.90;;;;;;5051959;28;20032;-68
2021/01/09 10:34:07;;;;;;;17.40;8.35;;;6.00;92.90;;;;;;5062446;28;20035;-68
2021/01/09 10:36:35;;;;;;;15.35;7.65;;;6.00;93.00;;;;;;5070359;28;20376;-68
2021/01/09 10:39:01;;;;;;;14.38;8.23;;;6.00;93.00;;;;;;5066874;28;20036;-68
2021/01/09 10:41:27;;;;;;;13.75;7.45;;;6.10;93.00;;;;;;5058779;28;20021;-68
2021/01/09 10:43:53;;;;;;;13.88;7.45;;;6.00;93.10;;;;;;5054132;28;20075;-67
2021/01/09 10:46:21;;;;;;;14.57;7.95;;;6.00;93.10;;;;;;5051901;28;20132;-68
2021/01/09 10:48:46;;;;;;;16.63;8.45;;;6.00;93.10;;;;;;5061419;28;20024;-68
2021/01/09 10:51:14;;;;;;;14.88;7.90;;;6.00;93.20;;;;;;5060881;28;20051;-68
2021/01/09 10:53:39;;;;;;;15.32;8.95;;;6.00;93.20;;;;;;5059120;28;20029;-70
2021/01/09 10:56:05;;;;;;;15.80;8.48;;;6.10;93.30;;;;;;5068483;28;20036;-69
2021/01/09 10:58:30;;;;;;;13.27;7.40;;;6.10;93.30;;;;;;5052303;28;20017;-67
2021/01/09 11:00:56;;;;;;;17.30;8.43;;;6.00;93.30;;;;;;5052442;28;20036;-68
2021/01/09 11:03:21;;;;;;;20.05;10.00;;;6.10;93.40;;;;;;5058321;28;20408;-66
2021/01/09 11:05:47;;;;;;;17.27;8.75;;;6.10;93.40;;;;;;5065212;28;20043;-67
2021/01/09 11:08:12;;;;;;;18.80;9.25;;;6.10;93.50;;;;;;5069981;28;20055;-69
2021/01/09 11:10:38;;;;;;;17.50;8.18;;;6.20;93.50;;;;;;5062502;28;20094;-69
2021/01/09 11:13:04;;;;;;;18.17;9.18;;;6.20;93.60;;;;;;5053411;28;20029;-70
2021/01/09 11:15:29;;;;;;;18.42;9.05;;;6.20;93.60;;;;;;5061736;28;20104;-69
2021/01/09 11:17:55;;;;;;;16.92;8.77;;;6.20;93.60;;;;;;5055809;28;20037;-70
2021/01/09 11:20:20;;;;;;;16.17;8.23;;;6.20;93.50;;;;;;5054201;28;20787;-70
2021/01/09 11:22:46;;;;;;;15.10;8.10;;;6.20;93.60;;;;;;5070353;28;20584;-69
2021/01/09 11:25:11;;;;;;;17.45;8.82;;;6.20;93.70;;;;;;5067442;28;20032;-68
2021/01/09 11:27:37;;;;;;;16.77;8.52;;;6.20;93.60;;;;;;5054371;28;20481;-68
2021/01/09 11:30:03;;;;;;;17.30;9.23;;;6.30;93.70;;;;;;5054682;28;20075;-68
2021/01/09 11:32:29;;;;;;;16.02;8.75;;;6.20;93.50;;;;;;5052808;28;20029;-69
2021/01/09 11:34:54;;;;;;;16.63;8.68;;;6.20;93.50;;;;;;5051479;28;20024;-68
2021/01/09 11:37:26;;;;;;;16.05;9.23;;;6.30;93.60;;;;;;5052896;28;20051;-69
2021/01/09 11:39:54;;;;;;;16.65;7.82;;;6.20;93.60;;;;;;5050282;28;20494;-69
2021/01/09 11:42:20;;;;;;;14.93;8.15;;;6.30;93.60;;;;;;5062694;28;20024;-69
2021/01/09 11:44:47;;;;;;;16.05;7.82;;;6.20;93.60;;;;;;5051337;28;20079;-69
2021/01/09 11:47:13;;;;;;;15.40;8.50;;;6.20;93.60;;;;;;5051802;28;20570;-69
2021/01/09 11:49:38;;;;;;;16.80;8.88;;;6.20;93.70;;;;;;5054669;28;20056;-68
2021/01/09 11:52:04;;;;;;;16.17;8.10;;;6.20;93.70;;;;;;5054669;28;20033;-68
2021/01/09 11:54:29;;;;;;;18.05;9.65;;;6.20;93.80;;;;;;5070779;28;20040;-68
2021/01/09 11:56:56;;;;;;;14.63;8.85;;;6.20;93.80;;;;;;5068259;28;20029;-68
2021/01/09 11:59:22;;;;;;;16.17;8.73;;;6.20;93.80;;;;;;5052900;28;20091;-68
2021/01/09 12:01:47;;;;;;;16.38;8.43;;;6.20;93.90;;;;;;5051043;28;20036;-67
2021/01/09 12:04:13;;;;;;;15.40;8.00;;;6.20;93.90;;;;;;5051044;28;20401;-67
2021/01/09 12:06:38;;;;;;;18.13;9.93;;;6.20;93.80;;;;;;5055419;28;20388;-67
2021/01/09 12:09:04;;;;;;;17.55;9.93;;;6.10;93.90;;;;;;5052494;28;20021;-67
2021/01/09 12:11:31;;;;;;;22.25;11.02;;;6.10;94.00;;;;;;5059638;28;20127;-67
2021/01/09 12:13:57;;;;;;;20.77;11.10;;;6.10;94.00;;;;;;5077076;28;20370;-66
2021/01/09 12:16:32;;;;;;;18.77;9.77;;;6.10;94.00;;;;;;5061500;28;20074;-67
2021/01/09 12:18:58;;;;;;;20.85;10.35;;;6.00;94.10;;;;;;5071485;28;20028;-67
2021/01/09 12:21:28;;;;;;;18.70;10.48;;;6.10;94.20;;;;;;5067292;28;20039;-68
2021/01/09 12:23:55;;;;;;;19.83;11.43;;;6.10;94.20;;;;;;5062556;28;20044;-66
2021/01/09 12:26:21;;;;;;;18.08;10.05;;;6.10;94.20;;;;;;5065847;28;20064;-66
2021/01/09 12:28:47;;;;;;;17.90;10.20;;;6.10;94.20;;;;;;5056045;28;20055;-67
2021/01/09 12:31:13;;;;;;;19.42;9.88;;;6.10;94.30;;;;;;5061575;28;20712;-67
2021/01/09 12:33:45;;;;;;;22.17;11.30;;;6.20;94.20;;;;;;5073300;28;20031;-67
2021/01/09 12:36:15;;;;;;;19.38;9.82;;;6.10;94.20;;;;;;5061360;28;20036;-67
2021/01/09 12:38:41;;;;;;;18.67;9.85;;;6.00;94.60;;;;;;5064422;28;20140;-67
2021/01/09 12:41:06;;;;;;;16.65;9.27;;;5.80;94.60;;;;;;5055795;28;20481;-67
2021/01/09 12:43:32;;;;;;;17.67;9.88;;;5.90;94.60;;;;;;5054948;28;20055;-67
2021/01/09 12:45:57;;;;;;;19.92;9.93;;;5.80;94.70;;;;;;5055102;28;20481;-68
2021/01/09 12:48:23;;;;;;;19.30;9.75;;;5.80;94.80;;;;;;5056789;28;20066;-68
2021/01/09 12:50:49;;;;;;;19.13;9.80;;;5.80;94.70;;;;;;5056356;28;20441;-68
2021/01/09 12:53:14;;;;;;;17.95;9.25;;;5.80;94.80;;;;;;5057688;28;20782;-67
2021/01/09 12:55:40;;;;;;;16.58;9.30;;;5.80;94.90;;;;;;5059700;28;20044;-67